sensor_id;sensor_type;location;lat;lon;timestamp;temperature;humidity
9662;DHT22;24982;52.344;12.990;2023-06-19T00:02:47;20.10;99.90
9662;DHT22;24982;52.344;12.990;2023-06-19T00:05:49;20.10;99.90
9662;DHT22;24982;52.344;12.990;2023-06-19T00:08:51;20.00;99.90
9662;DHT22;24982;52.344;12.990;2023-06-19T00:11:53;20.00;99.90
9662;DHT22;24982;52.344;12.990;2023-06-19T00:14:55;20.10;99.90
9662;DHT22;24982;52.344;12.990;2023-06-19T00:17:58;20.10;99.90
9662;DHT22;24982;52.344;12.990;2023-06-19T00:21:00;20.00;99.90
9662;DHT22;24982;52.344;12.990;2023-06-19T00:24:03;20.00;99.90
9662;DHT22;24982;52.344;12.990;2023-06-19T00:27:06;20.10;99.90
9662;DHT22;24982;52.344;12.990;2023-06-19T00:30:09;20.10;99.90
9662;DHT22;24982;52.344;12.990;2023-06-19T00:33:12;20.00;99.90
9662;DHT22;24982;52.344;12.990;2023-06-19T00:36:15;20.10;99.90
9662;DHT22;24982;52.344;12.990;2023-06-19T00:39:20;20.10;99.90
9662;DHT22;24982;52.344;12.990;2023-06-19T00:42:22;20.00;99.90
9662;DHT22;24982;52.344;12.990;2023-06-19T00:45:24;20.00;99.90
9662;DHT22;24982;52.344;12.990;2023-06-19T00:48:30;20.00;99.90
9662;DHT22;24982;52.344;12.990;2023-06-19T00:51:32;20.00;99.90
9662;DHT22;24982;52.344;12.990;2023-06-19T00:54:34;20.00;99.90
9662;DHT22;24982;52.344;12.990;2023-06-19T00:57:36;20.00;99.90
9662;DHT22;24982;52.344;12.990;2023-06-19T01:00:40;20.00;99.90
9662;DHT22;24982;52.344;12.990;2023-06-19T01:03:43;20.00;99.90
9662;DHT22;24982;52.344;12.990;2023-06-19T01:06:50;19.90;99.90
9662;DHT22;24982;52.344;12.990;2023-06-19T01:10:01;20.00;99.90
9662;DHT22;24982;52.344;12.990;2023-06-19T01:13:08;19.90;99.90
9662;DHT22;24982;52.344;12.990;2023-06-19T01:16:12;19.90;99.90
9662;DHT22;24982;52.344;12.990;2023-06-19T01:19:19;19.90;99.90
9662;DHT22;24982;52.344;12.990;2023-06-19T01:22:29;19.90;99.90
9662;DHT22;24982;52.344;12.990;2023-06-19T01:25:33;19.80;99.90
9662;DHT22;24982;52.344;12.990;2023-06-19T01:28:36;19.80;99.90
9662;DHT22;24982;52.344;12.990;2023-06-19T01:31:50;19.80;99.90
9662;DHT22;24982;52.344;12.990;2023-06-19T01:34:54;19.80;99.90
9662;DHT22;24982;52.344;12.990;2023-06-19T01:38:00;19.80;99.90
9662;DHT22;24982;52.344;12.990;2023-06-19T01:41:04;19.80;99.90
9662;DHT22;24982;52.344;12.990;2023-06-19T01:44:08;19.80;99.90
9662;DHT22;24982;52.344;12.990;2023-06-19T01:47:10;19.90;99.90
9662;DHT22;24982;52.344;12.990;2023-06-19T01:50:12;19.80;99.90
9662;DHT22;24982;52.344;12.990;2023-06-19T01:53:18;19.80;99.90
9662;DHT22;24982;52.344;12.990;2023-06-19T01:56:21;19.80;99.90
9662;DHT22;24982;52.344;12.990;2023-06-19T01:59:25;19.80;99.90
9662;DHT22;24982;52.344;12.990;2023-06-19T02:02:27;19.70;99.90
9662;DHT22;24982;52.344;12.990;2023-06-19T02:05:29;19.80;99.90
9662;DHT22;24982;52.344;12.990;2023-06-19T02:08:32;19.80;99.90
9662;DHT22;24982;52.344;12.990;2023-06-19T02:11:34;19.80;99.90
9662;DHT22;24982;52.344;12.990;2023-06-19T02:14:36;19.70;99.90
9662;DHT22;24982;52.344;12.990;2023-06-19T02:17:38;19.70;99.90
9662;DHT22;24982;52.344;12.990;2023-06-19T02:20:40;19.70;99.90
9662;DHT22;24982;52.344;12.990;2023-06-19T02:23:43;19.60;99.90
9662;DHT22;24982;52.344;12.990;2023-06-19T02:26:45;19.60;99.90
9662;DHT22;24982;52.344;12.990;2023-06-19T02:29:48;19.60;99.90
9662;DHT22;24982;52.344;12.990;2023-06-19T02:32:49;19.60;99.90
9662;DHT22;24982;52.344;12.990;2023-06-19T02:35:51;19.50;99.90
9662;DHT22;24982;52.344;12.990;2023-06-19T02:39:00;19.60;99.90
9662;DHT22;24982;52.344;12.990;2023-06-19T02:42:03;19.60;99.90
9662;DHT22;24982;52.344;12.990;2023-06-19T02:45:06;19.60;99.90
9662;DHT22;24982;52.344;12.990;2023-06-19T02:48:08;19.60;99.90
9662;DHT22;24982;52.344;12.990;2023-06-19T02:51:10;19.60;99.90
9662;DHT22;24982;52.344;12.990;2023-06-19T02:54:13;19.60;99.90
9662;DHT22;24982;52.344;12.990;2023-06-19T02:57:15;19.50;99.90
9662;DHT22;24982;52.344;12.990;2023-06-19T03:00:17;19.50;99.90
9662;DHT22;24982;52.344;12.990;2023-06-19T03:03:20;19.60;99.90
9662;DHT22;24982;52.344;12.990;2023-06-19T03:06:25;19.60;99.90
9662;DHT22;24982;52.344;12.990;2023-06-19T03:09:28;19.60;99.90
9662;DHT22;24982;52.344;12.990;2023-06-19T03:12:30;19.60;99.90
9662;DHT22;24982;52.344;12.990;2023-06-19T03:15:33;19.60;99.90
9662;DHT22;24982;52.344;12.990;2023-06-19T03:18:35;19.60;99.90
9662;DHT22;24982;52.344;12.990;2023-06-19T03:21:37;19.50;99.90
9662;DHT22;24982;52.344;12.990;2023-06-19T03:24:40;19.60;99.90
9662;DHT22;24982;52.344;12.990;2023-06-19T03:27:53;19.60;99.90
9662;DHT22;24982;52.344;12.990;2023-06-19T03:30:55;19.60;99.90
9662;DHT22;24982;52.344;12.990;2023-06-19T03:33:58;19.40;99.90
9662;DHT22;24982;52.344;12.990;2023-06-19T03:37:00;19.60;99.90
9662;DHT22;24982;52.344;12.990;2023-06-19T03:40:05;19.50;99.90
9662;DHT22;24982;52.344;12.990;2023-06-19T03:43:13;19.60;99.90
9662;DHT22;24982;52.344;12.990;2023-06-19T03:46:17;19.60;99.90
9662;DHT22;24982;52.344;12.990;2023-06-19T03:49:20;19.60;99.90
9662;DHT22;24982;52.344;12.990;2023-06-19T03:52:24;19.60;99.90
9662;DHT22;24982;52.344;12.990;2023-06-19T03:55:28;19.60;99.90
9662;DHT22;24982;52.344;12.990;2023-06-19T03:58:29;19.60;99.90
9662;DHT22;24982;52.344;12.990;2023-06-19T04:01:31;19.60;99.90
9662;DHT22;24982;52.344;12.990;2023-06-19T04:04:33;19.60;99.90
9662;DHT22;24982;52.344;12.990;2023-06-19T04:07:35;19.60;99.90
9662;DHT22;24982;52.344;12.990;2023-06-19T04:10:38;19.60;99.90
9662;DHT22;24982;52.344;12.990;2023-06-19T04:13:40;19.60;99.90
9662;DHT22;24982;52.344;12.990;2023-06-19T04:16:42;19.60;99.90
9662;DHT22;24982;52.344;12.990;2023-06-19T04:19:44;19.60;99.90
9662;DHT22;24982;52.344;12.990;2023-06-19T04:22:46;19.60;99.90
9662;DHT22;24982;52.344;12.990;2023-06-19T04:25:50;19.60;99.90
9662;DHT22;24982;52.344;12.990;2023-06-19T04:28:51;19.60;99.90
9662;DHT22;24982;52.344;12.990;2023-06-19T04:31:53;19.60;99.90
9662;DHT22;24982;52.344;12.990;2023-06-19T04:34:55;19.60;99.90
9662;DHT22;24982;52.344;12.990;2023-06-19T04:37:57;19.60;99.90
9662;DHT22;24982;52.344;12.990;2023-06-19T04:41:03;19.70;99.90
9662;DHT22;24982;52.344;12.990;2023-06-19T04:44:05;19.70;99.90
9662;DHT22;24982;52.344;12.990;2023-06-19T04:47:07;19.70;99.90
9662;DHT22;24982;52.344;12.990;2023-06-19T04:50:08;19.70;99.90
9662;DHT22;24982;52.344;12.990;2023-06-19T04:53:10;19.70;99.90
9662;DHT22;24982;52.344;12.990;2023-06-19T04:56:14;19.70;99.90
9662;DHT22;24982;52.344;12.990;2023-06-19T04:59:17;19.70;99.90
9662;DHT22;24982;52.344;12.990;2023-06-19T05:02:19;19.70;99.90
9662;DHT22;24982;52.344;12.990;2023-06-19T05:05:21;19.70;99.90
9662;DHT22;24982;52.344;12.990;2023-06-19T05:08:23;19.70;99.90
9662;DHT22;24982;52.344;12.990;2023-06-19T05:11:26;19.70;99.90
9662;DHT22;24982;52.344;12.990;2023-06-19T05:14:28;19.70;99.90
9662;DHT22;24982;52.344;12.990;2023-06-19T05:17:30;19.70;99.90
9662;DHT22;24982;52.344;12.990;2023-06-19T05:20:32;19.80;99.90
9662;DHT22;24982;52.344;12.990;2023-06-19T05:23:34;19.70;99.90
9662;DHT22;24982;52.344;12.990;2023-06-19T05:26:37;19.70;99.90
9662;DHT22;24982;52.344;12.990;2023-06-19T05:29:39;19.70;99.90
9662;DHT22;24982;52.344;12.990;2023-06-19T05:32:41;19.70;99.90
9662;DHT22;24982;52.344;12.990;2023-06-19T05:35:43;19.70;99.90
9662;DHT22;24982;52.344;12.990;2023-06-19T05:38:51;19.80;99.90
9662;DHT22;24982;52.344;12.990;2023-06-19T05:41:55;19.80;99.90
9662;DHT22;24982;52.344;12.990;2023-06-19T05:44:57;19.80;99.90
9662;DHT22;24982;52.344;12.990;2023-06-19T05:47:59;19.90;99.90
9662;DHT22;24982;52.344;12.990;2023-06-19T05:51:01;19.90;99.90
9662;DHT22;24982;52.344;12.990;2023-06-19T05:54:02;19.90;99.90
9662;DHT22;24982;52.344;12.990;2023-06-19T05:57:06;19.90;99.90
9662;DHT22;24982;52.344;12.990;2023-06-19T06:00:09;19.90;99.90
9662;DHT22;24982;52.344;12.990;2023-06-19T06:03:14;20.00;99.90
9662;DHT22;24982;52.344;12.990;2023-06-19T06:06:16;20.00;99.90
9662;DHT22;24982;52.344;12.990;2023-06-19T06:09:18;20.00;99.90
9662;DHT22;24982;52.344;12.990;2023-06-19T06:12:21;20.00;99.90
9662;DHT22;24982;52.344;12.990;2023-06-19T06:15:23;20.10;99.90
9662;DHT22;24982;52.344;12.990;2023-06-19T06:18:25;20.10;99.90
9662;DHT22;24982;52.344;12.990;2023-06-19T06:21:27;20.10;99.90
9662;DHT22;24982;52.344;12.990;2023-06-19T06:24:29;20.10;99.90
9662;DHT22;24982;52.344;12.990;2023-06-19T06:27:33;20.10;99.90
9662;DHT22;24982;52.344;12.990;2023-06-19T06:30:34;20.10;99.90
9662;DHT22;24982;52.344;12.990;2023-06-19T06:33:36;20.10;99.90
9662;DHT22;24982;52.344;12.990;2023-06-19T06:36:38;20.00;99.90
9662;DHT22;24982;52.344;12.990;2023-06-19T06:39:40;20.20;99.90
9662;DHT22;24982;52.344;12.990;2023-06-19T06:42:43;20.20;99.90
9662;DHT22;24982;52.344;12.990;2023-06-19T06:45:45;20.20;99.90
9662;DHT22;24982;52.344;12.990;2023-06-19T06:48:48;20.20;99.90
9662;DHT22;24982;52.344;12.990;2023-06-19T06:51:50;20.20;99.90
9662;DHT22;24982;52.344;12.990;2023-06-19T06:54:52;20.30;99.90
9662;DHT22;24982;52.344;12.990;2023-06-19T06:57:55;20.40;99.90
9662;DHT22;24982;52.344;12.990;2023-06-19T07:00:57;20.30;99.90
9662;DHT22;24982;52.344;12.990;2023-06-19T07:03:59;20.30;99.90
9662;DHT22;24982;52.344;12.990;2023-06-19T07:07:01;20.20;99.90
9662;DHT22;24982;52.344;12.990;2023-06-19T07:10:05;20.30;99.90
9662;DHT22;24982;52.344;12.990;2023-06-19T07:13:09;20.30;99.90
9662;DHT22;24982;52.344;12.990;2023-06-19T07:16:11;20.30;99.90
9662;DHT22;24982;52.344;12.990;2023-06-19T07:19:12;20.30;99.90
9662;DHT22;24982;52.344;12.990;2023-06-19T07:22:15;20.30;99.90
9662;DHT22;24982;52.344;12.990;2023-06-19T07:25:17;20.40;99.90
9662;DHT22;24982;52.344;12.990;2023-06-19T07:28:21;20.40;99.90
9662;DHT22;24982;52.344;12.990;2023-06-19T07:31:23;20.80;99.90
9662;DHT22;24982;52.344;12.990;2023-06-19T07:34:25;20.70;99.90
9662;DHT22;24982;52.344;12.990;2023-06-19T07:37:27;20.60;99.90
9662;DHT22;24982;52.344;12.990;2023-06-19T07:40:28;20.50;99.90
9662;DHT22;24982;52.344;12.990;2023-06-19T07:43:32;20.50;99.90
9662;DHT22;24982;52.344;12.990;2023-06-19T07:46:33;20.50;99.90
9662;DHT22;24982;52.344;12.990;2023-06-19T07:49:36;20.60;99.90
9662;DHT22;24982;52.344;12.990;2023-06-19T07:52:37;20.50;99.90
9662;DHT22;24982;52.344;12.990;2023-06-19T07:55:41;20.50;99.90
9662;DHT22;24982;52.344;12.990;2023-06-19T07:58:44;20.60;99.90
9662;DHT22;24982;52.344;12.990;2023-06-19T08:01:46;20.60;99.90
9662;DHT22;24982;52.344;12.990;2023-06-19T08:04:48;20.70;99.90
9662;DHT22;24982;52.344;12.990;2023-06-19T08:07:50;20.70;99.90
9662;DHT22;24982;52.344;12.990;2023-06-19T08:10:52;20.70;99.90
9662;DHT22;24982;52.344;12.990;2023-06-19T08:13:55;20.90;99.90
9662;DHT22;24982;52.344;12.990;2023-06-19T08:16:57;20.80;99.90
9662;DHT22;24982;52.344;12.990;2023-06-19T08:19:59;20.80;99.90
9662;DHT22;24982;52.344;12.990;2023-06-19T08:23:07;20.80;99.90
9662;DHT22;24982;52.344;12.990;2023-06-19T08:26:08;20.90;99.90
9662;DHT22;24982;52.344;12.990;2023-06-19T08:29:12;21.00;99.90
9662;DHT22;24982;52.344;12.990;2023-06-19T08:32:14;21.00;99.90
9662;DHT22;24982;52.344;12.990;2023-06-19T08:35:16;21.00;99.90
9662;DHT22;24982;52.344;12.990;2023-06-19T08:38:18;21.10;99.90
9662;DHT22;24982;52.344;12.990;2023-06-19T08:41:20;21.10;99.90
9662;DHT22;24982;52.344;12.990;2023-06-19T08:44:23;21.10;99.90
9662;DHT22;24982;52.344;12.990;2023-06-19T08:47:29;21.10;99.90
9662;DHT22;24982;52.344;12.990;2023-06-19T08:50:31;21.20;99.90
9662;DHT22;24982;52.344;12.990;2023-06-19T08:53:35;21.20;99.90
9662;DHT22;24982;52.344;12.990;2023-06-19T08:56:40;21.20;99.90
9662;DHT22;24982;52.344;12.990;2023-06-19T08:59:49;21.20;99.90
9662;DHT22;24982;52.344;12.990;2023-06-19T09:02:52;21.20;99.90
9662;DHT22;24982;52.344;12.990;2023-06-19T09:05:54;21.20;99.90
9662;DHT22;24982;52.344;12.990;2023-06-19T09:08:58;21.30;99.90
9662;DHT22;24982;52.344;12.990;2023-06-19T09:12:02;21.30;99.90
9662;DHT22;24982;52.344;12.990;2023-06-19T09:15:13;21.40;99.90
9662;DHT22;24982;52.344;12.990;2023-06-19T09:18:15;21.40;99.90
9662;DHT22;24982;52.344;12.990;2023-06-19T09:21:17;21.40;99.90
9662;DHT22;24982;52.344;12.990;2023-06-19T09:24:19;21.50;99.90
9662;DHT22;24982;52.344;12.990;2023-06-19T09:27:21;21.50;99.90
9662;DHT22;24982;52.344;12.990;2023-06-19T09:30:25;21.50;99.90
9662;DHT22;24982;52.344;12.990;2023-06-19T09:33:28;21.60;99.90
9662;DHT22;24982;52.344;12.990;2023-06-19T09:36:32;21.60;99.90
9662;DHT22;24982;52.344;12.990;2023-06-19T09:39:36;21.70;99.90
9662;DHT22;24982;52.344;12.990;2023-06-19T09:42:40;21.70;99.90
9662;DHT22;24982;52.344;12.990;2023-06-19T09:45:54;21.70;99.90
9662;DHT22;24982;52.344;12.990;2023-06-19T09:48:59;21.70;99.90
9662;DHT22;24982;52.344;12.990;2023-06-19T09:52:02;21.70;99.90
9662;DHT22;24982;52.344;12.990;2023-06-19T09:55:05;21.70;99.90
9662;DHT22;24982;52.344;12.990;2023-06-19T09:58:09;21.60;99.90
9662;DHT22;24982;52.344;12.990;2023-06-19T10:01:13;21.70;99.90
9662;DHT22;24982;52.344;12.990;2023-06-19T10:04:15;21.70;99.90
9662;DHT22;24982;52.344;12.990;2023-06-19T10:07:20;21.70;99.90
9662;DHT22;24982;52.344;12.990;2023-06-19T10:10:25;21.80;99.90
9662;DHT22;24982;52.344;12.990;2023-06-19T10:13:35;22.00;99.90
9662;DHT22;24982;52.344;12.990;2023-06-19T10:16:38;22.00;99.90
9662;DHT22;24982;52.344;12.990;2023-06-19T10:19:49;22.00;99.90
9662;DHT22;24982;52.344;12.990;2023-06-19T10:22:56;22.10;99.90
9662;DHT22;24982;52.344;12.990;2023-06-19T10:25:59;22.10;99.90
9662;DHT22;24982;52.344;12.990;2023-06-19T10:29:06;22.30;99.90
9662;DHT22;24982;52.344;12.990;2023-06-19T10:32:16;22.50;99.90
9662;DHT22;24982;52.344;12.990;2023-06-19T10:35:18;22.60;99.90
9662;DHT22;24982;52.344;12.990;2023-06-19T10:38:22;22.70;99.90
9662;DHT22;24982;52.344;12.990;2023-06-19T10:41:25;23.00;99.90
9662;DHT22;24982;52.344;12.990;2023-06-19T10:44:27;23.30;99.90
9662;DHT22;24982;52.344;12.990;2023-06-19T10:47:30;23.40;99.90
9662;DHT22;24982;52.344;12.990;2023-06-19T10:50:37;23.60;99.90
9662;DHT22;24982;52.344;12.990;2023-06-19T10:53:39;23.90;99.90
9662;DHT22;24982;52.344;12.990;2023-06-19T10:56:41;24.10;99.90
9662;DHT22;24982;52.344;12.990;2023-06-19T10:59:44;24.30;99.90
9662;DHT22;24982;52.344;12.990;2023-06-19T11:02:47;24.20;99.90
9662;DHT22;24982;52.344;12.990;2023-06-19T11:05:50;24.40;99.90
9662;DHT22;24982;52.344;12.990;2023-06-19T11:08:52;24.40;99.90
9662;DHT22;24982;52.344;12.990;2023-06-19T11:11:54;24.50;99.90
9662;DHT22;24982;52.344;12.990;2023-06-19T11:14:55;24.40;99.90
9662;DHT22;24982;52.344;12.990;2023-06-19T11:18:01;24.60;99.90
9662;DHT22;24982;52.344;12.990;2023-06-19T11:21:03;24.60;99.90
9662;DHT22;24982;52.344;12.990;2023-06-19T11:24:06;24.60;99.90
9662;DHT22;24982;52.344;12.990;2023-06-19T11:27:22;24.50;99.90
9662;DHT22;24982;52.344;12.990;2023-06-19T11:30:31;24.90;99.90
9662;DHT22;24982;52.344;12.990;2023-06-19T11:33:35;24.70;99.90
9662;DHT22;24982;52.344;12.990;2023-06-19T11:36:38;24.80;99.90
9662;DHT22;24982;52.344;12.990;2023-06-19T11:39:40;24.70;99.90
9662;DHT22;24982;52.344;12.990;2023-06-19T11:42:46;24.70;99.90
9662;DHT22;24982;52.344;12.990;2023-06-19T11:45:49;24.80;99.90
9662;DHT22;24982;52.344;12.990;2023-06-19T11:48:55;25.10;99.90
9662;DHT22;24982;52.344;12.990;2023-06-19T11:51:58;25.40;99.90
9662;DHT22;24982;52.344;12.990;2023-06-19T11:55:00;25.60;99.90
9662;DHT22;24982;52.344;12.990;2023-06-19T11:58:02;26.00;99.90
9662;DHT22;24982;52.344;12.990;2023-06-19T12:01:04;26.00;99.90
9662;DHT22;24982;52.344;12.990;2023-06-19T12:04:07;26.50;99.90
9662;DHT22;24982;52.344;12.990;2023-06-19T12:07:09;26.60;99.90
9662;DHT22;24982;52.344;12.990;2023-06-19T12:10:12;26.80;99.90
9662;DHT22;24982;52.344;12.990;2023-06-19T12:13:14;27.00;99.90
9662;DHT22;24982;52.344;12.990;2023-06-19T12:16:15;26.90;99.90
9662;DHT22;24982;52.344;12.990;2023-06-19T12:19:19;27.00;99.90
9662;DHT22;24982;52.344;12.990;2023-06-19T12:22:21;27.10;99.90
9662;DHT22;24982;52.344;12.990;2023-06-19T12:25:23;27.10;99.90
9662;DHT22;24982;52.344;12.990;2023-06-19T12:28:25;27.10;99.90
9662;DHT22;24982;52.344;12.990;2023-06-19T12:31:27;27.00;99.90
9662;DHT22;24982;52.344;12.990;2023-06-19T12:34:30;26.90;99.90
9662;DHT22;24982;52.344;12.990;2023-06-19T12:37:32;26.70;99.90
9662;DHT22;24982;52.344;12.990;2023-06-19T12:40:34;26.80;99.90
9662;DHT22;24982;52.344;12.990;2023-06-19T12:43:36;27.00;99.90
9662;DHT22;24982;52.344;12.990;2023-06-19T12:46:38;27.00;99.90
9662;DHT22;24982;52.344;12.990;2023-06-19T12:49:41;27.20;99.90
9662;DHT22;24982;52.344;12.990;2023-06-19T12:52:43;27.10;99.90
9662;DHT22;24982;52.344;12.990;2023-06-19T12:55:45;27.10;99.90
9662;DHT22;24982;52.344;12.990;2023-06-19T12:58:47;27.20;99.90
9662;DHT22;24982;52.344;12.990;2023-06-19T13:01:49;27.30;99.90
9662;DHT22;24982;52.344;12.990;2023-06-19T13:04:53;27.40;99.90
9662;DHT22;24982;52.344;12.990;2023-06-19T13:07:55;27.40;99.90
9662;DHT22;24982;52.344;12.990;2023-06-19T13:10:56;27.30;99.90
9662;DHT22;24982;52.344;12.990;2023-06-19T13:13:58;27.40;99.90
9662;DHT22;24982;52.344;12.990;2023-06-19T13:17:00;27.30;99.90
9662;DHT22;24982;52.344;12.990;2023-06-19T13:20:05;27.20;99.90
9662;DHT22;24982;52.344;12.990;2023-06-19T13:23:07;27.30;99.90
9662;DHT22;24982;52.344;12.990;2023-06-19T13:26:09;27.20;99.90
9662;DHT22;24982;52.344;12.990;2023-06-19T13:29:12;27.30;99.90
9662;DHT22;24982;52.344;12.990;2023-06-19T13:32:14;27.20;99.90
9662;DHT22;24982;52.344;12.990;2023-06-19T13:35:17;27.10;99.90
9662;DHT22;24982;52.344;12.990;2023-06-19T13:38:19;27.40;99.90
9662;DHT22;24982;52.344;12.990;2023-06-19T13:41:21;27.10;99.90
9662;DHT22;24982;52.344;12.990;2023-06-19T13:44:24;27.30;99.90
9662;DHT22;24982;52.344;12.990;2023-06-19T13:47:26;27.20;99.90
9662;DHT22;24982;52.344;12.990;2023-06-19T13:50:29;27.00;99.90
9662;DHT22;24982;52.344;12.990;2023-06-19T13:53:33;27.10;99.90
9662;DHT22;24982;52.344;12.990;2023-06-19T13:56:35;27.20;99.90
9662;DHT22;24982;52.344;12.990;2023-06-19T13:59:37;27.00;99.90
9662;DHT22;24982;52.344;12.990;2023-06-19T14:02:39;26.90;99.90
9662;DHT22;24982;52.344;12.990;2023-06-19T14:05:43;27.00;99.90
9662;DHT22;24982;52.344;12.990;2023-06-19T14:08:45;26.90;99.90
9662;DHT22;24982;52.344;12.990;2023-06-19T14:11:47;26.90;99.90
9662;DHT22;24982;52.344;12.990;2023-06-19T14:14:49;27.20;99.90
9662;DHT22;24982;52.344;12.990;2023-06-19T14:17:52;27.00;99.90
9662;DHT22;24982;52.344;12.990;2023-06-19T14:20:55;26.90;99.90
9662;DHT22;24982;52.344;12.990;2023-06-19T14:23:57;26.80;99.90
9662;DHT22;24982;52.344;12.990;2023-06-19T14:26:59;26.80;99.90
9662;DHT22;24982;52.344;12.990;2023-06-19T14:30:01;26.80;99.90
9662;DHT22;24982;52.344;12.990;2023-06-19T14:33:04;27.00;99.90
9662;DHT22;24982;52.344;12.990;2023-06-19T14:36:12;26.80;99.90
9662;DHT22;24982;52.344;12.990;2023-06-19T14:39:14;26.70;99.90
9662;DHT22;24982;52.344;12.990;2023-06-19T14:42:15;26.70;99.90
9662;DHT22;24982;52.344;12.990;2023-06-19T14:45:17;26.30;99.90
9662;DHT22;24982;52.344;12.990;2023-06-19T14:48:19;26.70;99.90
9662;DHT22;24982;52.344;12.990;2023-06-19T14:51:23;26.80;99.90
9662;DHT22;24982;52.344;12.990;2023-06-19T14:54:24;26.90;99.90
9662;DHT22;24982;52.344;12.990;2023-06-19T14:57:26;27.20;99.90
9662;DHT22;24982;52.344;12.990;2023-06-19T15:00:28;27.30;99.90
9662;DHT22;24982;52.344;12.990;2023-06-19T15:03:33;27.30;99.90
9662;DHT22;24982;52.344;12.990;2023-06-19T15:06:36;27.30;99.90
9662;DHT22;24982;52.344;12.990;2023-06-19T15:09:38;27.30;99.90
9662;DHT22;24982;52.344;12.990;2023-06-19T15:12:40;27.00;99.90
9662;DHT22;24982;52.344;12.990;2023-06-19T15:15:42;27.00;99.90
9662;DHT22;24982;52.344;12.990;2023-06-19T15:18:45;27.00;99.90
9662;DHT22;24982;52.344;12.990;2023-06-19T15:21:48;26.80;99.90
9662;DHT22;24982;52.344;12.990;2023-06-19T15:24:50;26.70;99.90
9662;DHT22;24982;52.344;12.990;2023-06-19T15:27:52;26.50;99.90
9662;DHT22;24982;52.344;12.990;2023-06-19T15:30:54;26.40;99.90
9662;DHT22;24982;52.344;12.990;2023-06-19T15:33:56;26.30;99.90
9662;DHT22;24982;52.344;12.990;2023-06-19T15:36:59;26.20;99.90
9662;DHT22;24982;52.344;12.990;2023-06-19T15:40:01;26.30;99.90
9662;DHT22;24982;52.344;12.990;2023-06-19T15:43:04;26.10;99.90
9662;DHT22;24982;52.344;12.990;2023-06-19T15:46:06;26.10;99.90
9662;DHT22;24982;52.344;12.990;2023-06-19T15:49:11;26.10;99.90
9662;DHT22;24982;52.344;12.990;2023-06-19T15:52:14;26.20;99.90
9662;DHT22;24982;52.344;12.990;2023-06-19T15:55:16;26.10;99.90
9662;DHT22;24982;52.344;12.990;2023-06-19T15:58:18;26.10;99.90
9662;DHT22;24982;52.344;12.990;2023-06-19T16:01:20;26.10;99.90
9662;DHT22;24982;52.344;12.990;2023-06-19T16:04:23;26.10;99.90
9662;DHT22;24982;52.344;12.990;2023-06-19T16:07:27;26.00;99.90
9662;DHT22;24982;52.344;12.990;2023-06-19T16:10:28;26.10;99.90
9662;DHT22;24982;52.344;12.990;2023-06-19T16:13:30;26.00;99.90
9662;DHT22;24982;52.344;12.990;2023-06-19T16:16:32;26.10;99.90
9662;DHT22;24982;52.344;12.990;2023-06-19T16:19:34;26.00;99.90
9662;DHT22;24982;52.344;12.990;2023-06-19T16:22:37;25.90;99.90
9662;DHT22;24982;52.344;12.990;2023-06-19T16:25:39;25.90;99.90
9662;DHT22;24982;52.344;12.990;2023-06-19T16:28:41;25.80;99.90
9662;DHT22;24982;52.344;12.990;2023-06-19T16:31:43;25.80;99.90
9662;DHT22;24982;52.344;12.990;2023-06-19T16:34:46;25.70;99.90
9662;DHT22;24982;52.344;12.990;2023-06-19T16:37:49;25.60;99.90
9662;DHT22;24982;52.344;12.990;2023-06-19T16:40:53;25.70;99.90
9662;DHT22;24982;52.344;12.990;2023-06-19T16:43:55;25.60;99.90
9662;DHT22;24982;52.344;12.990;2023-06-19T16:46:57;25.50;99.90
9662;DHT22;24982;52.344;12.990;2023-06-19T16:49:59;25.50;99.90
9662;DHT22;24982;52.344;12.990;2023-06-19T16:53:02;25.50;99.90
9662;DHT22;24982;52.344;12.990;2023-06-19T16:56:06;25.40;99.90
9662;DHT22;24982;52.344;12.990;2023-06-19T16:59:08;25.40;99.90
9662;DHT22;24982;52.344;12.990;2023-06-19T17:02:10;25.30;99.90
9662;DHT22;24982;52.344;12.990;2023-06-19T17:05:12;25.30;99.90
9662;DHT22;24982;52.344;12.990;2023-06-19T17:08:16;25.20;99.90
9662;DHT22;24982;52.344;12.990;2023-06-19T17:11:18;25.20;99.90
9662;DHT22;24982;52.344;12.990;2023-06-19T17:14:19;25.20;99.90
9662;DHT22;24982;52.344;12.990;2023-06-19T17:17:22;25.20;99.90
9662;DHT22;24982;52.344;12.990;2023-06-19T17:20:24;25.20;99.90
9662;DHT22;24982;52.344;12.990;2023-06-19T17:23:27;25.20;99.90
9662;DHT22;24982;52.344;12.990;2023-06-19T17:26:29;25.10;99.90
9662;DHT22;24982;52.344;12.990;2023-06-19T17:29:31;25.00;99.90
9662;DHT22;24982;52.344;12.990;2023-06-19T17:32:33;24.90;99.90
9662;DHT22;24982;52.344;12.990;2023-06-19T17:35:34;24.90;99.90
9662;DHT22;24982;52.344;12.990;2023-06-19T17:38:38;24.90;99.90
9662;DHT22;24982;52.344;12.990;2023-06-19T17:41:41;24.80;99.90
9662;DHT22;24982;52.344;12.990;2023-06-19T17:44:43;24.80;99.90
9662;DHT22;24982;52.344;12.990;2023-06-19T17:47:45;24.70;99.90
9662;DHT22;24982;52.344;12.990;2023-06-19T17:50:47;24.70;99.90
9662;DHT22;24982;52.344;12.990;2023-06-19T17:53:53;24.70;99.90
9662;DHT22;24982;52.344;12.990;2023-06-19T17:56:55;24.70;99.90
9662;DHT22;24982;52.344;12.990;2023-06-19T17:59:57;24.70;99.90
9662;DHT22;24982;52.344;12.990;2023-06-19T18:02:59;24.60;99.90
9662;DHT22;24982;52.344;12.990;2023-06-19T18:06:01;24.60;99.90
9662;DHT22;24982;52.344;12.990;2023-06-19T18:09:04;24.60;99.90
9662;DHT22;24982;52.344;12.990;2023-06-19T18:12:09;24.60;99.90
9662;DHT22;24982;52.344;12.990;2023-06-19T18:15:12;24.50;99.90
9662;DHT22;24982;52.344;12.990;2023-06-19T18:18:14;24.50;99.90
9662;DHT22;24982;52.344;12.990;2023-06-19T18:21:16;24.40;99.90
9662;DHT22;24982;52.344;12.990;2023-06-19T18:24:20;24.40;99.90
9662;DHT22;24982;52.344;12.990;2023-06-19T18:27:22;24.40;99.90
9662;DHT22;24982;52.344;12.990;2023-06-19T18:30:23;24.40;99.90
9662;DHT22;24982;52.344;12.990;2023-06-19T18:33:25;24.40;99.90
9662;DHT22;24982;52.344;12.990;2023-06-19T18:36:27;24.40;99.90
9662;DHT22;24982;52.344;12.990;2023-06-19T18:39:31;24.40;99.90
9662;DHT22;24982;52.344;12.990;2023-06-19T18:42:35;24.30;99.90
9662;DHT22;24982;52.344;12.990;2023-06-19T18:45:37;25.00;99.90
9662;DHT22;24982;52.344;12.990;2023-06-19T18:48:39;24.30;99.90
9662;DHT22;24982;52.344;12.990;2023-06-19T18:51:42;24.30;99.90
9662;DHT22;24982;52.344;12.990;2023-06-19T18:54:45;24.30;99.90
9662;DHT22;24982;52.344;12.990;2023-06-19T18:57:47;24.30;99.90
9662;DHT22;24982;52.344;12.990;2023-06-19T19:00:49;24.20;99.90
9662;DHT22;24982;52.344;12.990;2023-06-19T19:03:52;24.30;99.90
9662;DHT22;24982;52.344;12.990;2023-06-19T19:06:54;24.20;99.90
9662;DHT22;24982;52.344;12.990;2023-06-19T19:09:57;24.20;99.90
9662;DHT22;24982;52.344;12.990;2023-06-19T19:12:59;24.10;99.90
9662;DHT22;24982;52.344;12.990;2023-06-19T19:16:01;24.00;99.90